sensor_id;sensor_type;location;lat;lon;timestamp;P1;durP1;ratioP1;P2;durP2;ratioP2
33094;SDS011;19459;53.044;8.910;2023-02-28T00:00:27;19.23;;;7.22;;
33094;SDS011;19459;53.044;8.910;2023-02-28T00:02:53;20.73;;;8.98;;
33094;SDS011;19459;53.044;8.910;2023-02-28T00:05:20;17.25;;;7.97;;
33094;SDS011;19459;53.044;8.910;2023-02-28T00:07:48;16.17;;;7.70;;
33094;SDS011;19459;53.044;8.910;2023-02-28T00:10:16;14.38;;;7.22;;
33094;SDS011;19459;53.044;8.910;2023-02-28T00:12:49;19.63;;;8.15;;
33094;SDS011;19459;53.044;8.910;2023-02-28T00:15:16;15.45;;;7.10;;
33094;SDS011;19459;53.044;8.910;2023-02-28T00:17:42;17.70;;;7.82;;
33094;SDS011;19459;53.044;8.910;2023-02-28T00:20:09;15.40;;;7.25;;
33094;SDS011;19459;53.044;8.910;2023-02-28T00:22:41;14.95;;;7.55;;
33094;SDS011;19459;53.044;8.910;2023-02-28T00:25:10;17.50;;;7.45;;
33094;SDS011;19459;53.044;8.910;2023-02-28T00:27:39;15.93;;;7.50;;
33094;SDS011;19459;53.044;8.910;2023-02-28T00:30:06;13.27;;;7.43;;
33094;SDS011;19459;53.044;8.910;2023-02-28T00:32:36;14.35;;;7.95;;
33094;SDS011;19459;53.044;8.910;2023-02-28T00:35:02;20.23;;;7.38;;
33094;SDS011;19459;53.044;8.910;2023-02-28T00:37:28;16.95;;;7.80;;
33094;SDS011;19459;53.044;8.910;2023-02-28T00:39:54;16.38;;;7.70;;
33094;SDS011;19459;53.044;8.910;2023-02-28T00:42:20;12.45;;;7.38;;
33094;SDS011;19459;53.044;8.910;2023-02-28T00:44:46;12.65;;;7.40;;
33094;SDS011;19459;53.044;8.910;2023-02-28T00:47:12;19.45;;;7.70;;
33094;SDS011;19459;53.044;8.910;2023-02-28T00:49:38;13.60;;;8.23;;
33094;SDS011;19459;53.044;8.910;2023-02-28T00:52:03;14.27;;;7.20;;
33094;SDS011;19459;53.044;8.910;2023-02-28T00:54:29;16.95;;;8.18;;
33094;SDS011;19459;53.044;8.910;2023-02-28T00:56:55;18.52;;;8.70;;
33094;SDS011;19459;53.044;8.910;2023-02-28T00:59:21;20.58;;;8.18;;
33094;SDS011;19459;53.044;8.910;2023-02-28T01:01:47;15.88;;;8.50;;
33094;SDS011;19459;53.044;8.910;2023-02-28T01:04:13;16.00;;;8.85;;
33094;SDS011;19459;53.044;8.910;2023-02-28T01:06:39;21.67;;;8.75;;
33094;SDS011;19459;53.044;8.910;2023-02-28T01:09:05;18.27;;;8.48;;
33094;SDS011;19459;53.044;8.910;2023-02-28T01:11:33;15.38;;;8.15;;
33094;SDS011;19459;53.044;8.910;2023-02-28T01:13:59;20.55;;;9.98;;
33094;SDS011;19459;53.044;8.910;2023-02-28T01:16:26;12.98;;;8.38;;
33094;SDS011;19459;53.044;8.910;2023-02-28T01:18:53;16.73;;;7.80;;
33094;SDS011;19459;53.044;8.910;2023-02-28T01:21:20;12.63;;;7.85;;
33094;SDS011;19459;53.044;8.910;2023-02-28T01:23:47;17.38;;;10.05;;
33094;SDS011;19459;53.044;8.910;2023-02-28T01:26:18;10.93;;;7.95;;
33094;SDS011;19459;53.044;8.910;2023-02-28T01:28:46;18.05;;;9.30;;
33094;SDS011;19459;53.044;8.910;2023-02-28T01:31:13;15.27;;;8.68;;
33094;SDS011;19459;53.044;8.910;2023-02-28T01:33:40;17.10;;;10.00;;
33094;SDS011;19459;53.044;8.910;2023-02-28T01:36:10;18.33;;;9.00;;
33094;SDS011;19459;53.044;8.910;2023-02-28T01:38:44;20.08;;;9.77;;
33094;SDS011;19459;53.044;8.910;2023-02-28T01:41:17;17.90;;;9.55;;
33094;SDS011;19459;53.044;8.910;2023-02-28T01:44:00;14.65;;;9.43;;
33094;SDS011;19459;53.044;8.910;2023-02-28T01:46:28;20.20;;;10.50;;
33094;SDS011;19459;53.044;8.910;2023-02-28T01:49:07;17.55;;;11.38;;
33094;SDS011;19459;53.044;8.910;2023-02-28T01:54:30;17.02;;;10.27;;
33094;SDS011;19459;53.044;8.910;2023-02-28T01:57:01;21.13;;;10.38;;
33094;SDS011;19459;53.044;8.910;2023-02-28T01:59:43;19.65;;;11.55;;
33094;SDS011;19459;53.044;8.910;2023-02-28T02:02:38;22.83;;;10.50;;
33094;SDS011;19459;53.044;8.910;2023-02-28T02:05:09;18.77;;;10.85;;
33094;SDS011;19459;53.044;8.910;2023-02-28T02:07:48;19.33;;;11.32;;
33094;SDS011;19459;53.044;8.910;2023-02-28T02:10:29;20.02;;;10.15;;
33094;SDS011;19459;53.044;8.910;2023-02-28T02:16:23;20.25;;;10.10;;
33094;SDS011;19459;53.044;8.910;2023-02-28T02:25:39;25.08;;;10.25;;
33094;SDS011;19459;53.044;8.910;2023-02-28T02:31:26;20.15;;;11.18;;
33094;SDS011;19459;53.044;8.910;2023-02-28T02:45:49;26.67;;;11.93;;
33094;SDS011;19459;53.044;8.910;2023-02-28T02:48:21;17.52;;;11.40;;
33094;SDS011;19459;53.044;8.910;2023-02-28T02:50:56;17.33;;;10.82;;
33094;SDS011;19459;53.044;8.910;2023-02-28T02:53:36;21.90;;;10.27;;
33094;SDS011;19459;53.044;8.910;2023-02-28T02:56:08;20.02;;;10.80;;
33094;SDS011;19459;53.044;8.910;2023-02-28T02:58:37;18.17;;;9.55;;
33094;SDS011;19459;53.044;8.910;2023-02-28T03:01:07;16.20;;;9.68;;
33094;SDS011;19459;53.044;8.910;2023-02-28T03:03:40;20.77;;;9.93;;
33094;SDS011;19459;53.044;8.910;2023-02-28T03:06:07;12.98;;;8.85;;
33094;SDS011;19459;53.044;8.910;2023-02-28T03:08:34;19.00;;;9.27;;
33094;SDS011;19459;53.044;8.910;2023-02-28T03:11:03;20.40;;;8.57;;
33094;SDS011;19459;53.044;8.910;2023-02-28T03:22:07;13.23;;;7.70;;
33094;SDS011;19459;53.044;8.910;2023-02-28T03:30:46;16.15;;;8.55;;
33094;SDS011;19459;53.044;8.910;2023-02-28T03:33:22;14.35;;;8.43;;
33094;SDS011;19459;53.044;8.910;2023-02-28T03:35:57;14.13;;;7.97;;
33094;SDS011;19459;53.044;8.910;2023-02-28T03:38:35;18.70;;;8.43;;
33094;SDS011;19459;53.044;8.910;2023-02-28T03:41:14;12.90;;;7.72;;
33094;SDS011;19459;53.044;8.910;2023-02-28T03:44:21;16.73;;;7.82;;
33094;SDS011;19459;53.044;8.910;2023-02-28T03:46:45;15.45;;;7.18;;
33094;SDS011;19459;53.044;8.910;2023-02-28T03:49:28;13.13;;;7.07;;
33094;SDS011;19459;53.044;8.910;2023-02-28T03:52:00;13.60;;;6.95;;
33094;SDS011;19459;53.044;8.910;2023-02-28T03:54:30;13.63;;;7.80;;
33094;SDS011;19459;53.044;8.910;2023-02-28T03:59:56;13.50;;;7.15;;
33094;SDS011;19459;53.044;8.910;2023-02-28T04:02:30;10.38;;;5.95;;
33094;SDS011;19459;53.044;8.910;2023-02-28T04:04:57;17.08;;;6.90;;
33094;SDS011;19459;53.044;8.910;2023-02-28T04:07:29;12.63;;;7.53;;
33094;SDS011;19459;53.044;8.910;2023-02-28T04:09:55;15.23;;;7.97;;
33094;SDS011;19459;53.044;8.910;2023-02-28T04:12:22;15.57;;;7.68;;
33094;SDS011;19459;53.044;8.910;2023-02-28T04:14:48;14.15;;;6.70;;
33094;SDS011;19459;53.044;8.910;2023-02-28T04:17:15;13.57;;;7.15;;
33094;SDS011;19459;53.044;8.910;2023-02-28T04:19:41;16.30;;;8.85;;
33094;SDS011;19459;53.044;8.910;2023-02-28T04:22:08;13.48;;;7.32;;
33094;SDS011;19459;53.044;8.910;2023-02-28T04:24:34;9.07;;;6.50;;
33094;SDS011;19459;53.044;8.910;2023-02-28T04:27:02;10.00;;;6.57;;
33094;SDS011;19459;53.044;8.910;2023-02-28T04:29:31;9.15;;;6.20;;
33094;SDS011;19459;53.044;8.910;2023-02-28T04:31:58;13.60;;;6.63;;
33094;SDS011;19459;53.044;8.910;2023-02-28T04:34:29;14.10;;;8.02;;
33094;SDS011;19459;53.044;8.910;2023-02-28T04:36:57;14.82;;;7.32;;
33094;SDS011;19459;53.044;8.910;2023-02-28T04:39:23;13.00;;;6.97;;
33094;SDS011;19459;53.044;8.910;2023-02-28T04:41:50;10.68;;;6.60;;
33094;SDS011;19459;53.044;8.910;2023-02-28T04:44:16;12.07;;;6.57;;
33094;SDS011;19459;53.044;8.910;2023-02-28T04:46:42;15.48;;;6.75;;
33094;SDS011;19459;53.044;8.910;2023-02-28T04:49:11;11.57;;;7.38;;
33094;SDS011;19459;53.044;8.910;2023-02-28T04:51:38;10.93;;;6.68;;
33094;SDS011;19459;53.044;8.910;2023-02-28T04:54:04;18.67;;;7.38;;
33094;SDS011;19459;53.044;8.910;2023-02-28T04:56:30;11.63;;;6.32;;
33094;SDS011;19459;53.044;8.910;2023-02-28T04:58:56;15.70;;;7.60;;
33094;SDS011;19459;53.044;8.910;2023-02-28T05:01:23;10.93;;;6.55;;
33094;SDS011;19459;53.044;8.910;2023-02-28T05:03:59;12.25;;;6.90;;
33094;SDS011;19459;53.044;8.910;2023-02-28T05:06:27;15.63;;;6.60;;
33094;SDS011;19459;53.044;8.910;2023-02-28T05:08:56;10.15;;;6.55;;
33094;SDS011;19459;53.044;8.910;2023-02-28T05:11:29;12.50;;;7.35;;
33094;SDS011;19459;53.044;8.910;2023-02-28T05:14:00;10.02;;;7.60;;
33094;SDS011;19459;53.044;8.910;2023-02-28T05:16:31;10.27;;;6.32;;
33094;SDS011;19459;53.044;8.910;2023-02-28T05:18:58;16.65;;;6.35;;
33094;SDS011;19459;53.044;8.910;2023-02-28T05:21:25;14.50;;;6.55;;
33094;SDS011;19459;53.044;8.910;2023-02-28T05:23:57;14.57;;;7.18;;
33094;SDS011;19459;53.044;8.910;2023-02-28T05:26:25;12.30;;;6.40;;
33094;SDS011;19459;53.044;8.910;2023-02-28T05:28:52;14.38;;;7.20;;
33094;SDS011;19459;53.044;8.910;2023-02-28T05:31:20;13.20;;;6.07;;
33094;SDS011;19459;53.044;8.910;2023-02-28T05:33:46;13.88;;;7.97;;
33094;SDS011;19459;53.044;8.910;2023-02-28T05:36:12;14.80;;;7.38;;
33094;SDS011;19459;53.044;8.910;2023-02-28T05:38:38;12.98;;;6.15;;
33094;SDS011;19459;53.044;8.910;2023-02-28T05:41:04;15.68;;;8.13;;
33094;SDS011;19459;53.044;8.910;2023-02-28T05:43:34;13.63;;;6.65;;
33094;SDS011;19459;53.044;8.910;2023-02-28T05:46:02;13.90;;;6.80;;
33094;SDS011;19459;53.044;8.910;2023-02-28T05:48:33;14.38;;;7.43;;
33094;SDS011;19459;53.044;8.910;2023-02-28T05:51:01;14.18;;;6.82;;
33094;SDS011;19459;53.044;8.910;2023-02-28T05:53:27;10.63;;;6.53;;
33094;SDS011;19459;53.044;8.910;2023-02-28T05:55:53;11.57;;;6.70;;
33094;SDS011;19459;53.044;8.910;2023-02-28T05:58:19;12.65;;;7.22;;
33094;SDS011;19459;53.044;8.910;2023-02-28T06:00:46;13.77;;;8.80;;
33094;SDS011;19459;53.044;8.910;2023-02-28T06:03:13;14.52;;;8.60;;
33094;SDS011;19459;53.044;8.910;2023-02-28T06:05:38;11.98;;;8.00;;
33094;SDS011;19459;53.044;8.910;2023-02-28T06:08:04;14.43;;;7.68;;
33094;SDS011;19459;53.044;8.910;2023-02-28T06:10:36;13.45;;;8.35;;
33094;SDS011;19459;53.044;8.910;2023-02-28T06:13:02;18.33;;;10.70;;
33094;SDS011;19459;53.044;8.910;2023-02-28T06:15:29;20.55;;;8.68;;
33094;SDS011;19459;53.044;8.910;2023-02-28T06:17:55;15.98;;;9.55;;
33094;SDS011;19459;53.044;8.910;2023-02-28T06:20:22;13.65;;;7.82;;
33094;SDS011;19459;53.044;8.910;2023-02-28T06:22:49;16.38;;;9.10;;
33094;SDS011;19459;53.044;8.910;2023-02-28T06:25:16;11.57;;;7.40;;
33094;SDS011;19459;53.044;8.910;2023-02-28T06:27:42;14.95;;;7.57;;
33094;SDS011;19459;53.044;8.910;2023-02-28T06:30:09;12.57;;;7.30;;
33094;SDS011;19459;53.044;8.910;2023-02-28T06:32:36;16.23;;;8.25;;
33094;SDS011;19459;53.044;8.910;2023-02-28T06:35:02;15.27;;;8.45;;
33094;SDS011;19459;53.044;8.910;2023-02-28T06:37:30;14.75;;;8.27;;
33094;SDS011;19459;53.044;8.910;2023-02-28T06:39:57;14.32;;;8.07;;
33094;SDS011;19459;53.044;8.910;2023-02-28T06:42:23;10.82;;;7.50;;
33094;SDS011;19459;53.044;8.910;2023-02-28T06:44:54;12.30;;;7.30;;
33094;SDS011;19459;53.044;8.910;2023-02-28T06:47:21;13.18;;;7.47;;
33094;SDS011;19459;53.044;8.910;2023-02-28T06:49:47;14.00;;;9.05;;
33094;SDS011;19459;53.044;8.910;2023-02-28T06:52:13;12.85;;;7.60;;
33094;SDS011;19459;53.044;8.910;2023-02-28T06:54:39;12.07;;;7.38;;
33094;SDS011;19459;53.044;8.910;2023-02-28T06:57:05;10.77;;;7.75;;
33094;SDS011;19459;53.044;8.910;2023-02-28T06:59:31;16.98;;;8.15;;
33094;SDS011;19459;53.044;8.910;2023-02-28T07:01:56;15.70;;;7.47;;
33094;SDS011;19459;53.044;8.910;2023-02-28T07:04:22;13.35;;;7.22;;
33094;SDS011;19459;53.044;8.910;2023-02-28T07:06:48;13.30;;;7.72;;
33094;SDS011;19459;53.044;8.910;2023-02-28T07:09:14;21.10;;;10.32;;
33094;SDS011;19459;53.044;8.910;2023-02-28T07:11:40;14.50;;;9.05;;
33094;SDS011;19459;53.044;8.910;2023-02-28T07:14:08;14.55;;;10.40;;
33094;SDS011;19459;53.044;8.910;2023-02-28T07:16:34;14.13;;;9.60;;
33094;SDS011;19459;53.044;8.910;2023-02-28T07:19:00;24.67;;;13.93;;
33094;SDS011;19459;53.044;8.910;2023-02-28T07:21:26;21.58;;;13.63;;
33094;SDS011;19459;53.044;8.910;2023-02-28T07:23:52;16.60;;;10.85;;
33094;SDS011;19459;53.044;8.910;2023-02-28T07:26:18;18.85;;;11.00;;
33094;SDS011;19459;53.044;8.910;2023-02-28T07:28:46;16.25;;;10.65;;
33094;SDS011;19459;53.044;8.910;2023-02-28T07:31:13;15.48;;;9.00;;
33094;SDS011;19459;53.044;8.910;2023-02-28T07:33:39;27.55;;;13.35;;
33094;SDS011;19459;53.044;8.910;2023-02-28T07:36:07;22.38;;;12.65;;
33094;SDS011;19459;53.044;8.910;2023-02-28T07:38:44;22.27;;;11.55;;
33094;SDS011;19459;53.044;8.910;2023-02-28T07:41:13;19.20;;;11.27;;
33094;SDS011;19459;53.044;8.910;2023-02-28T07:43:40;16.75;;;10.18;;
33094;SDS011;19459;53.044;8.910;2023-02-28T07:46:08;21.38;;;11.27;;
33094;SDS011;19459;53.044;8.910;2023-02-28T07:48:37;14.77;;;9.93;;
33094;SDS011;19459;53.044;8.910;2023-02-28T07:51:03;16.73;;;9.75;;
33094;SDS011;19459;53.044;8.910;2023-02-28T07:53:29;19.33;;;12.07;;
33094;SDS011;19459;53.044;8.910;2023-02-28T07:55:56;14.18;;;9.80;;
33094;SDS011;19459;53.044;8.910;2023-02-28T07:58:23;16.70;;;9.90;;
33094;SDS011;19459;53.044;8.910;2023-02-28T08:00:49;14.32;;;8.25;;
33094;SDS011;19459;53.044;8.910;2023-02-28T08:03:16;20.23;;;12.82;;
33094;SDS011;19459;53.044;8.910;2023-02-28T08:05:43;20.48;;;10.75;;
33094;SDS011;19459;53.044;8.910;2023-02-28T08:08:10;12.40;;;8.10;;
33094;SDS011;19459;53.044;8.910;2023-02-28T08:10:36;17.23;;;7.72;;
33094;SDS011;19459;53.044;8.910;2023-02-28T08:13:02;18.48;;;7.72;;
33094;SDS011;19459;53.044;8.910;2023-02-28T08:15:28;11.70;;;8.00;;
33094;SDS011;19459;53.044;8.910;2023-02-28T08:17:54;56.10;;;31.75;;
33094;SDS011;19459;53.044;8.910;2023-02-28T08:20:21;19.85;;;11.30;;
33094;SDS011;19459;53.044;8.910;2023-02-28T08:22:50;16.98;;;11.18;;
33094;SDS011;19459;53.044;8.910;2023-02-28T08:25:16;12.93;;;9.27;;
33094;SDS011;19459;53.044;8.910;2023-02-28T08:27:43;28.95;;;18.63;;
33094;SDS011;19459;53.044;8.910;2023-02-28T08:30:12;18.35;;;12.73;;
33094;SDS011;19459;53.044;8.910;2023-02-28T08:32:39;15.10;;;9.95;;
33094;SDS011;19459;53.044;8.910;2023-02-28T08:35:06;18.13;;;8.95;;
33094;SDS011;19459;53.044;8.910;2023-02-28T08:37:34;12.85;;;7.18;;
33094;SDS011;19459;53.044;8.910;2023-02-28T08:39:59;18.92;;;11.68;;
33094;SDS011;19459;53.044;8.910;2023-02-28T08:42:25;19.10;;;11.00;;
33094;SDS011;19459;53.044;8.910;2023-02-28T08:44:51;29.85;;;16.33;;
33094;SDS011;19459;53.044;8.910;2023-02-28T08:47:17;20.15;;;11.07;;
33094;SDS011;19459;53.044;8.910;2023-02-28T08:49:43;15.23;;;6.80;;
33094;SDS011;19459;53.044;8.910;2023-02-28T08:52:09;13.63;;;6.40;;
33094;SDS011;19459;53.044;8.910;2023-02-28T08:54:35;14.63;;;5.93;;
33094;SDS011;19459;53.044;8.910;2023-02-28T08:57:01;25.73;;;13.55;;
33094;SDS011;19459;53.044;8.910;2023-02-28T08:59:28;9.30;;;6.40;;
33094;SDS011;19459;53.044;8.910;2023-02-28T09:01:54;12.13;;;4.63;;
33094;SDS011;19459;53.044;8.910;2023-02-28T09:04:20;5.72;;;4.18;;
33094;SDS011;19459;53.044;8.910;2023-02-28T09:06:47;7.15;;;4.32;;
33094;SDS011;19459;53.044;8.910;2023-02-28T09:09:13;5.22;;;4.10;;
33094;SDS011;19459;53.044;8.910;2023-02-28T09:11:40;5.20;;;3.95;;
33094;SDS011;19459;53.044;8.910;2023-02-28T09:14:06;5.97;;;3.90;;
33094;SDS011;19459;53.044;8.910;2023-02-28T09:16:32;7.22;;;4.57;;
33094;SDS011;19459;53.044;8.910;2023-02-28T09:18:59;4.85;;;3.90;;
33094;SDS011;19459;53.044;8.910;2023-02-28T09:21:25;12.13;;;7.22;;
33094;SDS011;19459;53.044;8.910;2023-02-28T09:23:51;5.82;;;4.05;;
33094;SDS011;19459;53.044;8.910;2023-02-28T09:26:22;7.43;;;4.90;;
33094;SDS011;19459;53.044;8.910;2023-02-28T09:28:50;7.85;;;5.05;;
33094;SDS011;19459;53.044;8.910;2023-02-28T09:31:18;3.63;;;2.72;;
33094;SDS011;19459;53.044;8.910;2023-02-28T09:33:50;6.50;;;3.38;;
33094;SDS011;19459;53.044;8.910;2023-02-28T09:36:21;5.50;;;3.75;;
33094;SDS011;19459;53.044;8.910;2023-02-28T09:38:49;4.72;;;2.70;;
33094;SDS011;19459;53.044;8.910;2023-02-28T09:41:20;4.38;;;2.13;;
33094;SDS011;19459;53.044;8.910;2023-02-28T09:43:52;7.78;;;2.65;;
33094;SDS011;19459;53.044;8.910;2023-02-28T09:46:32;4.55;;;2.50;;
33094;SDS011;19459;53.044;8.910;2023-02-28T09:49:06;3.80;;;2.22;;
33094;SDS011;19459;53.044;8.910;2023-02-28T09:54:11;4.32;;;2.17;;
33094;SDS011;19459;53.044;8.910;2023-02-28T09:56:45;4.28;;;1.67;;
33094;SDS011;19459;53.044;8.910;2023-02-28T10:05:06;3.55;;;2.15;;
33094;SDS011;19459;53.044;8.910;2023-02-28T10:12:58;3.85;;;1.30;;
33094;SDS011;19459;53.044;8.910;2023-02-28T10:15:29;7.60;;;6.40;;
33094;SDS011;19459;53.044;8.910;2023-02-28T10:17:58;10.05;;;3.17;;
33094;SDS011;19459;53.044;8.910;2023-02-28T10:20:30;6.75;;;4.00;;
33094;SDS011;19459;53.044;8.910;2023-02-28T10:23:14;2.88;;;1.38;;
33094;SDS011;19459;53.044;8.910;2023-02-28T10:28:20;2.28;;;1.50;;
33094;SDS011;19459;53.044;8.910;2023-02-28T10:30:47;3.75;;;1.40;;
33094;SDS011;19459;53.044;8.910;2023-02-28T10:33:22;3.15;;;1.55;;
33094;SDS011;19459;53.044;8.910;2023-02-28T10:35:54;4.82;;;1.65;;
33094;SDS011;19459;53.044;8.910;2023-02-28T10:38:21;2.42;;;1.50;;
33094;SDS011;19459;53.044;8.910;2023-02-28T10:41:10;3.88;;;1.58;;
33094;SDS011;19459;53.044;8.910;2023-02-28T10:44:20;3.38;;;1.65;;
33094;SDS011;19459;53.044;8.910;2023-02-28T10:46:49;3.03;;;1.70;;
33094;SDS011;19459;53.044;8.910;2023-02-28T10:49:28;3.03;;;1.63;;
33094;SDS011;19459;53.044;8.910;2023-02-28T10:51:55;1.98;;;1.40;;
33094;SDS011;19459;53.044;8.910;2023-02-28T10:54:31;2.55;;;1.23;;
33094;SDS011;19459;53.044;8.910;2023-02-28T10:57:20;2.97;;;1.80;;
33094;SDS011;19459;53.044;8.910;2023-02-28T10:59:52;3.20;;;1.65;;
33094;SDS011;19459;53.044;8.910;2023-02-28T11:02:38;1.98;;;1.40;;
33094;SDS011;19459;53.044;8.910;2023-02-28T11:07:59;4.30;;;1.80;;
33094;SDS011;19459;53.044;8.910;2023-02-28T11:10:44;3.40;;;1.67;;
33094;SDS011;19459;53.044;8.910;2023-02-28T11:13:31;2.83;;;2.10;;
33094;SDS011;19459;53.044;8.910;2023-02-28T11:16:02;4.35;;;1.80;;
33094;SDS011;19459;53.044;8.910;2023-02-28T11:18:39;2.80;;;1.60;;
33094;SDS011;19459;53.044;8.910;2023-02-28T11:21:17;4.18;;;1.38;;
33094;SDS011;19459;53.044;8.910;2023-02-28T11:26:47;1.45;;;1.00;;
33094;SDS011;19459;53.044;8.910;2023-02-28T11:32:03;2.72;;;1.73;;
33094;SDS011;19459;53.044;8.910;2023-02-28T11:34:36;5.78;;;1.63;;
33094;SDS011;19459;53.044;8.910;2023-02-28T11:37:03;4.03;;;1.58;;
33094;SDS011;19459;53.044;8.910;2023-02-28T11:39:33;2.42;;;1.92;;
33094;SDS011;19459;53.044;8.910;2023-02-28T11:56:37;2.00;;;1.48;;
33094;SDS011;19459;53.044;8.910;2023-02-28T12:13:21;1.88;;;1.63;;
33094;SDS011;19459;53.044;8.910;2023-02-28T12:25:32;2.22;;;1.55;;
33094;SDS011;19459;53.044;8.910;2023-02-28T12:28:11;4.43;;;2.10;;
33094;SDS011;19459;53.044;8.910;2023-02-28T12:30:43;2.97;;;1.95;;
33094;SDS011;19459;53.044;8.910;2023-02-28T12:33:24;3.35;;;1.88;;
33094;SDS011;19459;53.044;8.910;2023-02-28T12:35:59;3.83;;;1.58;;
33094;SDS011;19459;53.044;8.910;2023-02-28T12:38:39;3.40;;;1.80;;
33094;SDS011;19459;53.044;8.910;2023-02-28T12:44:02;2.67;;;1.55;;
33094;SDS011;19459;53.044;8.910;2023-02-28T12:46:33;4.35;;;1.50;;
33094;SDS011;19459;53.044;8.910;2023-02-28T12:49:10;2.72;;;1.63;;
33094;SDS011;19459;53.044;8.910;2023-02-28T12:51:40;3.63;;;1.73;;
33094;SDS011;19459;53.044;8.910;2023-02-28T12:57:04;2.38;;;1.52;;
33094;SDS011;19459;53.044;8.910;2023-02-28T12:59:51;2.03;;;1.48;;
33094;SDS011;19459;53.044;8.910;2023-02-28T13:11:05;1.77;;;1.40;;
33094;SDS011;19459;53.044;8.910;2023-02-28T13:13:31;1.52;;;1.15;;
33094;SDS011;19459;53.044;8.910;2023-02-28T13:21:08;1.98;;;1.27;;
33094;SDS011;19459;53.044;8.910;2023-02-28T13:27:10;3.42;;;1.40;;
33094;SDS011;19459;53.044;8.910;2023-02-28T13:29:39;1.90;;;1.20;;
33094;SDS011;19459;53.044;8.910;2023-02-28T13:34:38;2.90;;;1.63;;
33094;SDS011;19459;53.044;8.910;2023-02-28T13:45:20;3.92;;;1.20;;
33094;SDS011;19459;53.044;8.910;2023-02-28T13:50:30;1.77;;;1.00;;
33094;SDS011;19459;53.044;8.910;2023-02-28T13:56:09;0.82;;;0.82;;
33094;SDS011;19459;53.044;8.910;2023-02-28T13:58:55;1.48;;;1.15;;
33094;SDS011;19459;53.044;8.910;2023-02-28T14:01:42;2.20;;;0.98;;
33094;SDS011;19459;53.044;8.910;2023-02-28T14:07:30;2.85;;;1.50;;
33094;SDS011;19459;53.044;8.910;2023-02-28T14:10:04;2.95;;;1.48;;
33094;SDS011;19459;53.044;8.910;2023-02-28T14:18:17;1.52;;;1.08;;
33094;SDS011;19459;53.044;8.910;2023-02-28T14:20:48;5.13;;;1.30;;
33094;SDS011;19459;53.044;8.910;2023-02-28T14:23:21;1.80;;;1.40;;
33094;SDS011;19459;53.044;8.910;2023-02-28T14:26:01;4.28;;;2.33;;
33094;SDS011;19459;53.044;8.910;2023-02-28T14:36:55;2.83;;;1.10;;
33094;SDS011;19459;53.044;8.910;2023-02-28T14:39:25;2.22;;;1.60;;
33094;SDS011;19459;53.044;8.910;2023-02-28T14:41:55;2.35;;;1.10;;
33094;SDS011;19459;53.044;8.910;2023-02-28T14:44:28;2.53;;;1.52;;
33094;SDS011;19459;53.044;8.910;2023-02-28T14:46:55;4.95;;;2.28;;
33094;SDS011;19459;53.044;8.910;2023-02-28T14:49:44;3.95;;;2.20;;
33094;SDS011;19459;53.044;8.910;2023-02-28T14:52:13;4.80;;;2.83;;
33094;SDS011;19459;53.044;8.910;2023-02-28T14:54:58;4.35;;;2.17;;
33094;SDS011;19459;53.044;8.910;2023-02-28T14:57:33;2.10;;;1.67;;
33094;SDS011;19459;53.044;8.910;2023-02-28T15:00:16;2.97;;;1.92;;
33094;SDS011;19459;53.044;8.910;2023-02-28T15:02:54;3.60;;;2.10;;
33094;SDS011;19459;53.044;8.910;2023-02-28T15:05:32;3.45;;;2.10;;
33094;SDS011;19459;53.044;8.910;2023-02-28T15:08:09;7.47;;;2.33;;
33094;SDS011;19459;53.044;8.910;2023-02-28T15:13:30;2.85;;;1.70;;
33094;SDS011;19459;53.044;8.910;2023-02-28T15:19:03;5.07;;;1.95;;
33094;SDS011;19459;53.044;8.910;2023-02-28T15:21:42;5.80;;;2.08;;
33094;SDS011;19459;53.044;8.910;2023-02-28T15:24:19;4.30;;;2.10;;
33094;SDS011;19459;53.044;8.910;2023-02-28T15:27:04;5.30;;;1.95;;
33094;SDS011;19459;53.044;8.910;2023-02-28T15:29:41;2.55;;;1.85;;
33094;SDS011;19459;53.044;8.910;2023-02-28T15:34:54;4.43;;;1.50;;
33094;SDS011;19459;53.044;8.910;2023-02-28T15:37:29;3.08;;;1.50;;
33094;SDS011;19459;53.044;8.910;2023-02-28T15:40:22;4.85;;;2.47;;
33094;SDS011;19459;53.044;8.910;2023-02-28T15:45:52;6.13;;;1.80;;
33094;SDS011;19459;53.044;8.910;2023-02-28T15:48:33;3.40;;;1.70;;
33094;SDS011;19459;53.044;8.910;2023-02-28T15:56:25;2.00;;;1.27;;
33094;SDS011;19459;53.044;8.910;2023-02-28T15:59:01;2.88;;;1.42;;
33094;SDS011;19459;53.044;8.910;2023-02-28T16:01:32;3.83;;;1.63;;
33094;SDS011;19459;53.044;8.910;2023-02-28T16:04:01;2.90;;;1.33;;
33094;SDS011;19459;53.044;8.910;2023-02-28T16:09:11;2.47;;;1.30;;
33094;SDS011;19459;53.044;8.910;2023-02-28T16:11:45;2.78;;;1.70;;
33094;SDS011;19459;53.044;8.910;2023-02-28T16:14:18;2.65;;;1.40;;
33094;SDS011;19459;53.044;8.910;2023-02-28T16:16:50;1.40;;;1.30;;
33094;SDS011;19459;53.044;8.910;2023-02-28T16:19:19;3.97;;;1.50;;
33094;SDS011;19459;53.044;8.910;2023-02-28T16:21:45;2.22;;;1.20;;
33094;SDS011;19459;53.044;8.910;2023-02-28T16:24:12;3.25;;;1.83;;
33094;SDS011;19459;53.044;8.910;2023-02-28T16:26:39;3.53;;;1.67;;
33094;SDS011;19459;53.044;8.910;2023-02-28T16:29:06;3.47;;;1.65;;
33094;SDS011;19459;53.044;8.910;2023-02-28T16:31:35;2.88;;;1.80;;
33094;SDS011;19459;53.044;8.910;2023-02-28T16:34:03;4.13;;;2.00;;
33094;SDS011;19459;53.044;8.910;2023-02-28T16:36:29;4.60;;;2.75;;
33094;SDS011;19459;53.044;8.910;2023-02-28T16:38:55;4.28;;;2.10;;
33094;SDS011;19459;53.044;8.910;2023-02-28T16:41:22;4.32;;;2.53;;
33094;SDS011;19459;53.044;8.910;2023-02-28T16:43:52;3.55;;;2.03;;
33094;SDS011;19459;53.044;8.910;2023-02-28T16:46:25;5.83;;;3.50;;
33094;SDS011;19459;53.044;8.910;2023-02-28T16:48:58;4.00;;;3.13;;
33094;SDS011;19459;53.044;8.910;2023-02-28T16:51:24;4.50;;;2.65;;
33094;SDS011;19459;53.044;8.910;2023-02-28T16:53:49;2.90;;;2.20;;
33094;SDS011;19459;53.044;8.910;2023-02-28T16:56:19;4.82;;;2.25;;
33094;SDS011;19459;53.044;8.910;2023-02-28T16:58:48;6.25;;;2.55;;
33094;SDS011;19459;53.044;8.910;2023-02-28T17:01:16;4.78;;;2.83;;
33094;SDS011;19459;53.044;8.910;2023-02-28T17:03:46;4.57;;;2.88;;
33094;SDS011;19459;53.044;8.910;2023-02-28T17:06:20;4.60;;;2.63;;
33094;SDS011;19459;53.044;8.910;2023-02-28T17:08:53;5.38;;;3.13;;
33094;SDS011;19459;53.044;8.910;2023-02-28T17:11:19;4.78;;;3.15;;
33094;SDS011;19459;53.044;8.910;2023-02-28T17:13:46;5.65;;;2.95;;
33094;SDS011;19459;53.044;8.910;2023-02-28T17:16:25;5.68;;;2.80;;
33094;SDS011;19459;53.044;8.910;2023-02-28T17:18:54;5.28;;;3.20;;
33094;SDS011;19459;53.044;8.910;2023-02-28T17:21:23;3.78;;;2.97;;
33094;SDS011;19459;53.044;8.910;2023-02-28T17:23:49;7.75;;;2.92;;
33094;SDS011;19459;53.044;8.910;2023-02-28T17:26:16;7.55;;;3.65;;
33094;SDS011;19459;53.044;8.910;2023-02-28T17:28:45;10.82;;;3.78;;
33094;SDS011;19459;53.044;8.910;2023-02-28T17:31:12;6.80;;;3.40;;
33094;SDS011;19459;53.044;8.910;2023-02-28T17:33:38;8.20;;;4.25;;
33094;SDS011;19459;53.044;8.910;2023-02-28T17:36:04;5.88;;;3.45;;
33094;SDS011;19459;53.044;8.910;2023-02-28T17:38:31;11.98;;;4.85;;
33094;SDS011;19459;53.044;8.910;2023-02-28T17:40:57;11.88;;;5.38;;
33094;SDS011;19459;53.044;8.910;2023-02-28T17:43:26;9.45;;;5.57;;
33094;SDS011;19459;53.044;8.910;2023-02-28T17:45:52;11.18;;;6.85;;
33094;SDS011;19459;53.044;8.910;2023-02-28T17:48:18;11.65;;;6.90;;
33094;SDS011;19459;53.044;8.910;2023-02-28T17:50:44;19.27;;;8.02;;
33094;SDS011;19459;53.044;8.910;2023-02-28T17:53:11;14.10;;;7.93;;
33094;SDS011;19459;53.044;8.910;2023-02-28T17:55:36;15.40;;;8.32;;
33094;SDS011;19459;53.044;8.910;2023-02-28T17:58:03;15.32;;;8.68;;
33094;SDS011;19459;53.044;8.910;2023-02-28T18:00:29;13.25;;;7.25;;